Clare, Illinois
Current Conditions -  °F | °C
As of 5:55 AM on Thursday 23 Oct 2014 (Local Time) from KDKB Reporting Station
Haze Haze  
Wind Chill: 28°   Ceiling: Unl
Heat Index: 35°   Visibility: 4mi
Dew Point: 34°   Wind: 8mph
Humidity: 96%   Direction: 150°SSE
Pressure: 30.21"   Gusts: NA
Location:  42.02°N, 88.83°W
Report Text: KDKB 231055Z AUTO 15007KT 4SM BR CLR 02/01 A3021 RMK AO2 T00150009
Loading
Personal Weather Stations






























Interactive Weather Map
Tropical Storm Tracking
New forecast layout! Learn more

10-Day Weather Forecast

Advertisements
Track Severe Weather on mobile